Tropical Cyclones
[Index]
Main Index Home Page Stock Weather Photos Extreme Storms Discussion Storm News and Storm Chasing Reports Tropical Cyclones / Hurricanes / Typhoons Weather Data and Links Wild Fires / Bushfires Weather Observation Techniques Weather Picture Catalogue Tornado Pictures and Reports Stock Video Footage and DVDs for sale
Season 2013-2014 Tropical Cyclone DELIWE Track Map
Season 2013-2014 Summaries: [BoM-AU] [JTWC-AU] [JTWC-SIO] [JTWC-SPAC] [JTWC-SH]
<<- Previous TC | JTWC 2013-2014 Season | Next TC ->>

click for intensity scale information  Lat/long Grid: Show Hide

 Date Labels: Show Hide

Joint Typhoon Warning Centre Cyclone Data

Name: DELIWE

14 Jan 2014 12:00 UTC to 21 Jan 2014 00:00 UTC

    date/time    lat    long     hPa   cat  kts
2014-01-14 12   15.5    43.2    1007         20          
2014-01-14 18   16.0    43.9    1007         20          
2014-01-15 00   16.5    44.1    1007         20          
2014-01-15 06   16.4    44.7    1004         25          
2014-01-15 12   17.2    44.8    1000         30          
2014-01-15 18   18.1    44.4    1000         30          
2014-01-16 00   18.6    44.0    1000         30          
2014-01-16 06   19.3    43.8    1000         30          
2014-01-16 12   20.3    43.5     996         35          
2014-01-16 18   21.3    43.3     993    1    40          
2014-01-17 00   22.3    42.7     985    1    50          
2014-01-17 06   23.4    42.2     985    1    50          
2014-01-17 12   24.5    41.6     989    1    45          
2014-01-17 18   25.2    40.8     993    1    40          
2014-01-18 00   25.5    40.2    1000         30          
2014-01-18 06   25.8    39.9    1000         30          
2014-01-18 09   25.8    39.7    1000         30          
2014-01-18 12   25.7    40.0    1000         30          
2014-01-18 15   26.0    39.8    1000         30          
2014-01-18 18   25.7    39.4    1000         30          
2014-01-19 00   25.1    38.7    1004         25          
2014-01-19 06   24.7    38.3    1004         25          
2014-01-19 12   24.1    38.0    1004         25          
2014-01-19 18   23.4    38.0    1004         25          
2014-01-20 00   23.1    37.8    1007         20          
2014-01-20 06   23.1    37.5    1007         20          
2014-01-20 09   23.1    37.3    1007         20          
2014-01-20 12   22.9    37.5    1007         20          
2014-01-20 15   23.2    37.6    1007         20          
2014-01-20 18   23.3    37.3    1007         20          
2014-01-21 00   23.7    37.5    1007         20          
Winds are 1-min average.

Tropical cyclone tracks developed by Michael Bath using data from the Joint Typhoon Warning Centre Best Tracks and Google Maps.


[Australian Severe Weather index] [Copyright Notice] [Email Contacts] [Search This Site] [Privacy Policy]
Document: tropical_cyclone_deliwe.htm Updated: 28 June 2017